Time;durP1;ratioP1;P1;durP2;ratioP2;P2;SDS_P1;SDS_P2;PMS_P1;PMS_P2;Temp;Humidity;BMP_temperature;BMP_pressure;BME280_temperature;BME280_humidity;BME280_pressure;Samples;Min_cycle;Max_cycle;Signal;HPM_P1;HPM_P2
2022/01/03 00:00:27;;;;;;;15.32;7.05;;;;;;;-5.51;84.09;100316.03;1780721;80;21330;-84
2022/01/03 00:03:29;;;;;;;11.90;7.17;;;;;;;-5.32;84.21;100313.80;1781711;80;21300;-84
2022/01/03 00:06:41;;;;;;;14.23;6.67;;;;;;;-5.21;83.75;100310.16;1781754;80;21300;-84
2022/01/03 00:09:48;;;;;;;22.80;9.20;;;;;;;-5.17;83.54;100297.06;1780154;80;21192;-84
2022/01/03 00:12:55;;;;;;;14.25;6.75;;;;;;;-5.16;83.35;100289.45;1779905;80;21184;-83
2022/01/03 00:16:00;;;;;;;12.60;6.80;;;;;;;-5.23;83.20;100269.34;1780011;80;21334;-84
2022/01/03 00:19:06;;;;;;;27.67;11.30;;;;;;;-5.31;83.12;100264.89;1781553;80;21303;-83
2022/01/03 00:22:14;;;;;;;50.70;20.37;;;;;;;-5.36;83.24;100257.56;1780243;80;21181;-84
2022/01/03 00:25:23;;;;;;;56.00;25.62;;;;;;;-5.34;83.45;100251.70;1780858;80;21861;-84
2022/01/03 00:28:43;;;;;;;64.55;29.02;;;;;;;-5.32;83.64;100244.48;1782064;80;21818;-84
2022/01/03 00:31:49;;;;;;;45.10;16.95;;;;;;;-5.16;84.09;100246.78;1781863;80;21298;-84
2022/01/03 00:34:56;;;;;;;22.02;10.13;;;;;;;-4.98;83.98;100244.50;1782584;80;21893;-84
2022/01/03 00:38:01;;;;;;;22.98;8.03;;;;;;;-4.91;83.82;100224.55;1781880;80;21806;-84
2022/01/03 00:41:06;;;;;;;14.63;7.40;;;;;;;-4.84;83.94;100213.09;1781577;80;21815;-84
2022/01/03 00:44:11;;;;;;;17.65;11.73;;;;;;;-4.74;83.93;100207.66;1781629;80;21193;-83
2022/01/03 00:47:18;;;;;;;20.62;12.40;;;;;;;-4.75;83.60;100205.94;1774833;80;21315;-84
2022/01/03 00:50:25;;;;;;;21.82;13.62;;;;;;;-4.76;83.70;100189.51;1771372;81;22128;-84
2022/01/03 00:53:30;;;;;;;20.88;10.72;;;;;;;-4.67;83.86;100193.49;1771352;81;21814;-84
2022/01/03 00:56:44;;;;;;;22.22;11.85;;;;;;;-4.49;84.04;100177.81;1769846;81;21264;-84
2022/01/03 00:59:52;;;;;;;21.77;12.18;;;;;;;-4.40;83.42;100173.30;1771156;81;21299;-82
2022/01/03 01:03:15;;;;;;;15.13;8.45;;;;;;;-4.47;83.15;100159.92;1771402;81;21307;-85
2022/01/03 01:06:22;;;;;;;13.65;6.65;;;;;;;-4.45;83.25;100162.02;1770105;81;21295;-85
2022/01/03 01:09:29;;;;;;;10.45;5.22;;;;;;;-4.42;83.76;100152.52;1771202;81;21704;-85
2022/01/03 01:12:37;;;;;;;9.70;5.53;;;;;;;-4.37;83.88;100137.09;1771111;81;21814;-85
2022/01/03 01:15:42;;;;;;;11.95;5.97;;;;;;;-4.31;84.15;100134.55;1770503;81;21303;-85
2022/01/03 01:18:51;;;;;;;14.20;5.25;;;;;;;-4.22;84.36;100139.84;1771273;81;21315;-85
2022/01/03 01:21:57;;;;;;;12.05;5.42;;;;;;;-4.07;84.43;100136.30;1771532;81;21304;-85
2022/01/03 01:28:23;;;;;;;8.88;4.87;;;;;;;-3.78;83.88;100121.23;1769654;81;21739;-84
2022/01/03 01:31:30;;;;;;;12.53;5.95;;;;;;;-3.68;83.27;100113.05;1770606;81;21334;-84
2022/01/03 01:34:36;;;;;;;6.60;4.40;;;;;;;-3.63;82.97;100113.64;1771557;81;21316;-84
2022/01/03 01:37:44;;;;;;;9.88;4.78;;;;;;;-3.52;82.86;100105.48;1771213;81;21200;-84
2022/01/03 01:40:56;;;;;;;13.48;4.60;;;;;;;-3.49;82.53;100098.59;1769883;81;21256;-84
2022/01/03 01:44:06;;;;;;;11.15;4.85;;;;;;;-3.47;82.48;100084.19;1771460;81;21743;-84
2022/01/03 01:47:14;;;;;;;14.30;5.00;;;;;;;-3.44;82.10;100072.43;1768799;80;21845;-84
2022/01/03 01:50:19;;;;;;;11.28;4.42;;;;;;;-3.41;81.88;100061.56;1771298;81;22662;-84
2022/01/03 01:53:32;;;;;;;11.53;4.72;;;;;;;-3.39;81.54;100067.66;1769763;81;21894;-84
2022/01/03 01:56:46;;;;;;;10.53;4.55;;;;;;;-3.43;81.47;100056.31;1770087;81;21331;-84
2022/01/03 02:00:16;;;;;;;5.87;3.90;;;;;;;-3.45;81.50;100049.32;1771424;81;21304;-84
2022/01/03 02:04:04;;;;;;;6.50;3.60;;;;;;;-3.41;81.95;100049.04;1771313;81;21326;-84
2022/01/03 02:07:55;;;;;;;9.93;4.80;;;;;;;-3.29;81.91;100039.41;1770262;81;21766;-84
2022/01/03 02:11:28;;;;;;;12.40;5.72;;;;;;;-3.25;81.54;100032.89;1769864;81;21212;-84
2022/01/03 02:14:37;;;;;;;10.18;5.35;;;;;;;-3.25;81.60;100025.34;1771271;81;21220;-84
2022/01/03 02:17:44;;;;;;;11.60;5.10;;;;;;;-3.26;81.59;100019.14;1769645;81;21224;-84
2022/01/03 02:20:50;;;;;;;6.72;4.50;;;;;;;-3.29;81.69;100009.10;1771498;81;21676;-84
2022/01/03 02:23:56;;;;;;;8.10;4.30;;;;;;;-3.36;81.90;100012.17;1771351;81;21307;-83
2022/01/03 02:27:02;;;;;;;10.45;5.83;;;;;;;-3.37;82.17;100003.77;1771207;81;21358;-84
2022/01/03 02:30:06;;;;;;;18.75;7.33;;;;;;;-3.33;82.43;99998.24;1771299;81;21244;-84
2022/01/03 02:33:12;;;;;;;15.65;5.95;;;;;;;-3.29;82.62;99991.72;1769989;81;21197;-84
2022/01/03 02:36:17;;;;;;;12.65;5.58;;;;;;;-3.33;82.93;99992.41;1770910;81;21224;-84
2022/01/03 02:39:23;;;;;;;11.55;5.47;;;;;;;-3.30;83.38;99986.84;1771194;81;21941;-84
2022/01/03 02:42:28;;;;;;;10.25;4.53;;;;;;;-3.30;83.60;99976.63;1771278;81;21339;-84
2022/01/03 02:45:34;;;;;;;8.33;4.75;;;;;;;-3.27;84.14;99980.46;1771145;81;21319;-85
2022/01/03 02:48:39;;;;;;;17.90;7.45;;;;;;;-3.30;84.62;99964.59;1771343;80;21877;-84
2022/01/03 02:51:46;;;;;;;16.50;6.00;;;;;;;-3.30;85.10;99961.44;1778005;80;21260;-84
2022/01/03 02:54:52;;;;;;;12.13;4.67;;;;;;;-3.29;85.81;99951.14;1779525;80;21362;-85
2022/01/03 02:58:07;;;;;;;7.28;3.70;;;;;;;-3.24;86.50;99946.84;1778286;80;21216;-84
2022/01/03 03:01:12;;;;;;;6.28;3.90;;;;;;;-3.29;87.14;99935.09;1779865;80;21335;-85
2022/01/03 03:04:21;;;;;;;6.70;3.50;;;;;;;-3.36;88.03;99915.03;1779432;80;21188;-84
2022/01/03 03:07:31;;;;;;;4.50;3.37;;;;;;;-3.42;89.12;99912.28;1779038;80;21208;-85
2022/01/03 03:10:36;;;;;;;6.35;3.40;;;;;;;-3.49;90.04;99902.91;1779597;80;21298;-85
2022/01/03 03:13:42;;;;;;;5.90;3.10;;;;;;;-3.53;90.97;99890.69;1779586;80;21291;-85
2022/01/03 03:16:48;;;;;;;5.00;3.77;;;;;;;-3.56;91.87;99876.68;1777973;80;21212;-85
2022/01/03 03:20:05;;;;;;;6.22;3.90;;;;;;;-3.57;92.63;99870.48;1779437;80;21291;-85
2022/01/03 03:23:10;;;;;;;4.80;3.55;;;;;;;-3.57;93.35;99855.77;1778782;80;21421;-85
2022/01/03 03:26:18;;;;;;;6.90;4.22;;;;;;;-3.56;94.07;99840.11;1779483;80;21330;-85
2022/01/03 03:29:23;;;;;;;6.87;4.20;;;;;;;-3.54;94.74;99832.83;1779502;80;21355;-85
2022/01/03 03:32:28;;;;;;;6.20;3.83;;;;;;;-3.50;95.20;99815.63;1779454;80;21826;-85
2022/01/03 03:35:33;;;;;;;9.13;4.62;;;;;;;-3.50;95.68;99796.92;1779453;80;21302;-85
2022/01/03 03:38:39;;;;;;;9.60;4.58;;;;;;;-3.47;96.21;99791.38;1778030;80;21298;-84
2022/01/03 03:41:45;;;;;;;7.62;4.12;;;;;;;-3.48;96.51;99786.11;1779402;80;22601;-85
2022/01/03 03:44:49;;;;;;;8.08;4.72;;;;;;;-3.45;96.92;99789.94;1775094;80;21291;-85
2022/01/03 03:47:57;;;;;;;7.83;4.95;;;;;;;-3.40;97.13;99783.32;1778671;80;21197;-85
2022/01/03 03:51:02;;;;;;;8.10;5.33;;;;;;;-3.32;97.19;99769.94;1765891;80;21895;-85
2022/01/03 03:54:09;;;;;;;9.53;6.50;;;;;;;-3.27;97.24;99762.47;1763066;81;21323;-84
2022/01/03 03:57:15;;;;;;;12.07;5.97;;;;;;;-3.24;97.46;99766.28;1764073;81;21331;-85
2022/01/03 04:00:23;;;;;;;11.63;6.20;;;;;;;-3.20;97.66;99745.03;1764358;81;21671;-85
2022/01/03 04:03:29;;;;;;;9.55;5.72;;;;;;;-3.19;97.82;99746.77;1764109;81;21872;-85
2022/01/03 04:06:34;;;;;;;10.35;6.20;;;;;;;-3.13;98.17;99740.99;1764107;81;21185;-85
2022/01/03 04:09:40;;;;;;;9.68;5.75;;;;;;;-3.08;98.52;99725.48;1762637;81;21343;-85
2022/01/03 04:12:46;;;;;;;10.30;6.40;;;;;;;-3.06;99.06;99720.02;1762597;81;21246;-85
2022/01/03 04:15:52;;;;;;;7.22;5.47;;;;;;;-3.04;99.72;99697.56;1764201;81;21311;-85
2022/01/03 04:18:57;;;;;;;9.78;6.35;;;;;;;-3.01;100.00;99716.09;1763070;81;21860;-85
2022/01/03 04:22:02;;;;;;;10.48;7.33;;;;;;;-2.95;100.00;99716.15;1764125;81;21236;-85
2022/01/03 04:25:08;;;;;;;14.65;7.72;;;;;;;-2.85;100.00;99708.71;1763817;81;21372;-85
2022/01/03 04:28:15;;;;;;;15.13;8.25;;;;;;;-2.77;100.00;99700.64;1762925;81;21189;-85
2022/01/03 04:31:20;;;;;;;12.43;8.18;;;;;;;-2.73;100.00;99687.39;1764162;81;21334;-85
2022/01/03 04:34:27;;;;;;;11.03;6.92;;;;;;;-2.71;100.00;99684.14;1764467;81;21295;-85
2022/01/03 04:37:33;;;;;;;17.20;8.60;;;;;;;-2.70;100.00;99684.03;1764044;81;21351;-85
2022/01/03 04:40:39;;;;;;;13.88;8.25;;;;;;;-2.67;100.00;99697.70;1764209;81;21295;-85
2022/01/03 04:43:44;;;;;;;16.52;9.40;;;;;;;-2.62;100.00;99698.23;1762663;81;21264;-84
2022/01/03 04:46:54;;;;;;;16.12;10.05;;;;;;;-2.58;100.00;99700.58;1763682;81;21327;-84
2022/01/03 04:50:00;;;;;;;13.10;8.28;;;;;;;-2.55;100.00;99708.02;1764116;81;21287;-84
2022/01/03 04:53:07;;;;;;;15.43;8.63;;;;;;;-2.55;100.00;99706.19;1764321;81;21973;-84
2022/01/03 04:56:20;;;;;;;15.13;8.88;;;;;;;-2.52;100.00;99695.76;1764421;81;21440;-84
2022/01/03 04:59:26;;;;;;;12.50;8.38;;;;;;;-2.52;100.00;99668.49;1763294;81;21221;-84
2022/01/03 05:02:32;;;;;;;13.80;6.87;;;;;;;-2.51;100.00;99618.46;1764360;81;21327;-84
2022/01/03 05:05:36;;;;;;;16.48;7.25;;;;;;;-2.57;100.00;99581.79;1764349;81;21790;-85
2022/01/03 05:08:43;;;;;;;12.15;7.53;;;;;;;-2.64;100.00;99572.47;1763770;81;21307;-85
2022/01/03 05:11:48;;;;;;;10.18;6.90;;;;;;;-2.67;100.00;99589.27;1764423;81;21339;-85
2022/01/03 05:14:54;;;;;;;13.45;7.20;;;;;;;-2.69;100.00;99574.63;1764200;81;21300;-84
2022/01/03 05:17:59;;;;;;;10.93;7.42;;;;;;;-2.66;100.00;99576.25;1762785;81;21291;-85
2022/01/03 05:21:05;;;;;;;10.95;7.42;;;;;;;-2.66;100.00;99573.57;1764177;81;21823;-85
2022/01/03 05:24:10;;;;;;;10.43;6.87;;;;;;;-2.63;100.00;99570.68;1764130;81;21783;-85
2022/01/03 05:27:17;;;;;;;10.38;6.90;;;;;;;-2.58;100.00;99560.00;1764199;81;21188;-85
2022/01/03 05:30:22;;;;;;;12.33;7.58;;;;;;;-2.51;100.00;99553.70;1762821;81;21886;-84
2022/01/03 05:33:29;;;;;;;11.03;7.05;;;;;;;-2.49;100.00;99549.11;1764463;81;21279;-85
2022/01/03 05:36:36;;;;;;;10.38;6.75;;;;;;;-2.48;100.00;99528.05;1764666;81;21839;-85
2022/01/03 05:39:41;;;;;;;8.28;6.37;;;;;;;-2.47;100.00;99528.41;1763438;81;21257;-85
2022/01/03 05:42:46;;;;;;;8.35;6.25;;;;;;;-2.43;100.00;99531.24;1764290;81;21288;-85
2022/01/03 05:45:53;;;;;;;8.48;6.00;;;;;;;-2.35;100.00;99517.30;1763906;81;21343;-84
2022/01/03 05:48:58;;;;;;;9.95;6.58;;;;;;;-2.29;100.00;99487.85;1764034;81;21346;-84
2022/01/03 05:52:04;;;;;;;9.70;6.15;;;;;;;-2.25;100.00;99482.64;1768610;80;21263;-85
2022/01/03 05:55:10;;;;;;;12.98;7.15;;;;;;;-2.22;100.00;99477.88;1784597;80;21334;-84
2022/01/03 05:58:15;;;;;;;8.90;5.80;;;;;;;-2.15;100.00;99474.27;1785617;80;21319;-86
2022/01/03 06:01:23;;;;;;;16.42;8.75;;;;;;;-2.09;100.00;99481.34;1783396;80;21948;-84
2022/01/03 06:04:41;;;;;;;9.48;6.28;;;;;;;-1.98;100.00;99481.01;1783574;80;21299;-84
2022/01/03 06:07:36;;;;;;;8.40;6.00;;;;;;;-1.89;100.00;99476.29;1784455;80;21593;-84
2022/01/03 06:10:48;;;;;;;9.83;5.80;;;;;;;-1.82;100.00;99464.14;1783732;80;21338;-84
2022/01/03 06:13:56;;;;;;;8.73;5.62;;;;;;;-1.76;100.00;99458.78;1765562;80;21759;-85
2022/01/03 06:17:01;;;;;;;7.00;4.83;;;;;;;-1.71;100.00;99454.77;1785303;80;21200;-84
2022/01/03 06:20:07;;;;;;;7.78;5.03;;;;;;;-1.65;100.00;99460.98;1783725;80;21232;-85
2022/01/03 06:23:12;;;;;;;7.35;4.78;;;;;;;-1.58;100.00;99449.30;1784737;80;21692;-85
2022/01/03 06:26:16;;;;;;;8.18;5.45;;;;;;;-1.49;100.00;99449.08;1784679;80;21310;-85
2022/01/03 06:29:22;;;;;;;6.65;4.78;;;;;;;-1.45;100.00;99446.03;1785256;80;21850;-85
2022/01/03 06:32:26;;;;;;;7.80;4.75;;;;;;;-1.40;100.00;99437.62;1784709;80;21247;-85
2022/01/03 06:35:32;;;;;;;6.58;4.30;;;;;;;-1.38;100.00;99427.61;1784357;80;21352;-84
2022/01/03 06:38:37;;;;;;;5.58;4.15;;;;;;;-1.36;100.00;99421.16;1784846;80;21295;-85
2022/01/03 06:41:43;;;;;;;6.00;4.72;;;;;;;-1.27;100.00;99417.35;1784226;80;21334;-84
2022/01/03 06:44:49;;;;;;;6.12;4.35;;;;;;;-1.22;100.00;99395.91;1785061;80;21291;-85
2022/01/03 06:47:54;;;;;;;7.20;4.90;;;;;;;-1.17;100.00;99388.33;1785042;80;22732;-85
2022/01/03 06:51:00;;;;;;;6.08;4.30;;;;;;;-1.12;100.00;99383.44;1783949;80;21358;-85
2022/01/03 06:54:06;;;;;;;7.62;4.97;;;;;;;-1.07;100.00;99373.67;1775236;80;21339;-85
2022/01/03 06:57:13;;;;;;;6.47;4.30;;;;;;;-0.97;100.00;99373.28;1770001;81;21235;-85
2022/01/03 07:00:20;;;;;;;5.83;4.03;;;;;;;-0.95;100.00;99369.12;1769924;81;21255;-84
2022/01/03 07:03:26;;;;;;;6.70;4.30;;;;;;;-0.93;100.00;99345.70;1771292;81;21296;-85
2022/01/03 07:06:32;;;;;;;9.88;6.47;;;;;;;-0.88;100.00;99337.63;1771310;81;21295;-84
2022/01/03 07:09:38;;;;;;;7.45;4.92;;;;;;;-0.84;100.00;99325.65;1771223;81;21291;-84
2022/01/03 07:12:43;;;;;;;8.43;5.50;;;;;;;-0.77;100.00;99318.77;1769838;81;21259;-84
2022/01/03 07:19:12;;;;;;;7.53;4.58;;;;;;;-0.72;100.00;99306.80;1769909;81;21731;-84
2022/01/03 07:22:19;;;;;;;9.20;4.85;;;;;;;-0.61;100.00;99301.36;1771166;81;21304;-84
2022/01/03 07:25:24;;;;;;;8.93;5.28;;;;;;;-0.54;100.00;99271.66;1771332;81;21351;-84
2022/01/03 07:28:30;;;;;;;9.40;4.80;;;;;;;-0.46;100.00;99275.90;1771291;81;21181;-84
2022/01/03 07:31:37;;;;;;;9.28;4.33;;;;;;;-0.41;100.00;99268.29;1770267;81;21613;-84
2022/01/03 07:34:43;;;;;;;6.87;4.40;;;;;;;-0.33;100.00;99267.61;1771226;81;21296;-84
2022/01/03 07:37:50;;;;;;;7.05;4.72;;;;;;;-0.28;100.00;99247.44;1771174;81;21565;-84
2022/01/03 07:40:54;;;;;;;9.65;4.12;;;;;;;-0.23;100.00;99239.48;1770872;81;21362;-83
2022/01/03 07:44:00;;;;;;;9.55;4.78;;;;;;;-0.22;100.00;99238.48;1771271;81;21291;-83
2022/01/03 07:47:05;;;;;;;6.92;4.90;;;;;;;-0.21;100.00;99227.59;1770093;81;21375;-84
2022/01/03 07:50:11;;;;;;;7.65;4.50;;;;;;;-0.23;100.00;99236.30;1771609;81;21894;-84
2022/01/03 07:53:17;;;;;;;8.25;3.85;;;;;;;-0.27;100.00;99237.54;1771222;81;21370;-84
2022/01/03 07:56:23;;;;;;;11.08;4.83;;;;;;;-0.30;100.00;99226.55;1744539;82;21830;-83
2022/01/03 07:59:28;;;;;;;7.78;4.97;;;;;;;-0.25;100.00;99214.06;1744652;82;21351;-83
2022/01/03 08:02:34;;;;;;;8.73;4.30;;;;;;;-0.17;100.00;99212.05;1744713;82;21865;-83
2022/01/03 08:05:40;;;;;;;7.42;4.53;;;;;;;-0.12;100.00;99211.16;1746053;82;21264;-83
2022/01/03 08:08:47;;;;;;;6.60;4.33;;;;;;;-0.11;100.00;99198.91;1744316;82;21211;-83
2022/01/03 08:11:52;;;;;;;6.78;4.03;;;;;;;-0.07;100.00;99186.91;1745096;82;21857;-82
2022/01/03 08:14:57;;;;;;;9.85;4.47;;;;;;;0.03;100.00;99182.05;1745968;82;21303;-84
2022/01/03 08:18:04;;;;;;;10.55;4.30;;;;;;;0.10;100.00;99181.38;1746082;82;21176;-83
2022/01/03 08:21:09;;;;;;;10.32;4.87;;;;;;;0.16;100.00;99167.88;1745833;82;21379;-84
2022/01/03 08:24:15;;;;;;;13.85;6.00;;;;;;;0.19;100.00;99167.61;1746552;82;21315;-84
2022/01/03 08:27:21;;;;;;;8.98;4.83;;;;;;;0.29;100.00;99155.02;1745021;82;21338;-84
2022/01/03 08:30:27;;;;;;;10.93;5.62;;;;;;;0.40;100.00;99137.90;1744607;82;21299;-84
2022/01/03 08:33:33;;;;;;;7.80;5.10;;;;;;;0.48;100.00;99120.56;1746096;82;21247;-84
2022/01/03 08:36:40;;;;;;;7.75;4.47;;;;;;;0.49;100.00;99105.62;1746124;82;21723;-84
2022/01/03 08:39:47;;;;;;;6.17;3.95;;;;;;;0.49;100.00;99105.62;1744627;82;21200;-83
2022/01/03 08:42:52;;;;;;;6.35;3.90;;;;;;;0.56;100.00;99087.55;1744890;82;21330;-83
2022/01/03 08:45:58;;;;;;;6.58;4.35;;;;;;;0.61;100.00;99082.12;1745583;82;21882;-83
2022/01/03 08:49:03;;;;;;;7.25;4.78;;;;;;;0.64;100.00;99079.13;1746058;82;21354;-84
2022/01/03 08:52:10;;;;;;;6.37;4.28;;;;;;;0.68;100.00;99060.34;1745582;82;21307;-84
2022/01/03 08:55:15;;;;;;;13.25;5.50;;;;;;;0.75;100.00;99048.50;1751358;80;21973;-83
2022/01/03 08:58:21;;;;;;;7.35;4.55;;;;;;;0.81;100.00;99043.06;1770673;81;21878;-84
2022/01/03 09:01:26;;;;;;;6.92;4.42;;;;;;;0.84;100.00;99042.75;1771236;81;21184;-84
2022/01/03 09:04:31;;;;;;;5.40;4.05;;;;;;;0.87;100.00;99035.73;1771380;81;21308;-84
2022/01/03 09:07:30;;;;;;;6.78;4.03;;;;;;;0.87;100.00;99023.63;1771311;81;21853;-84
2022/01/03 09:10:36;;;;;;;7.53;4.00;;;;;;;0.90;100.00;99024.69;1771466;81;21306;-85
2022/01/03 09:13:44;;;;;;;6.17;3.92;;;;;;;0.96;100.00;99024.94;1769887;81;21196;-84
2022/01/03 09:16:51;;;;;;;8.33;4.55;;;;;;;1.11;100.00;99021.77;1771581;81;21295;-84
2022/01/03 09:19:57;;;;;;;10.70;4.90;;;;;;;1.19;100.00;99024.58;1769868;81;21177;-85
2022/01/03 09:23:11;;;;;;;7.47;4.78;;;;;;;1.21;100.00;99005.91;1770535;81;21334;-85
2022/01/03 09:29:33;;;;;;;11.88;4.40;;;;;;;1.28;100.00;98981.44;1770676;81;21252;-85
2022/01/03 09:32:38;;;;;;;7.87;4.30;;;;;;;1.31;100.00;98982.13;1769667;81;21192;-84
2022/01/03 09:35:43;;;;;;;9.88;4.15;;;;;;;1.36;100.00;98981.17;1769819;81;21296;-85
2022/01/03 09:38:49;;;;;;;10.20;4.65;;;;;;;1.45;100.00;98968.14;1771238;81;21180;-84
2022/01/03 09:42:12;;;;;;;5.55;4.10;;;;;;;1.47;100.00;98956.23;1769742;81;21838;-85
2022/01/03 09:45:20;;;;;;;10.13;4.83;;;;;;;1.49;100.00;98945.29;1769763;81;21335;-84
2022/01/03 09:48:26;;;;;;;7.53;4.45;;;;;;;1.48;100.00;98938.20;1769954;81;21316;-84
2022/01/03 09:51:34;;;;;;;7.70;4.85;;;;;;;1.51;100.00;98936.57;1769852;81;21240;-84
2022/01/03 09:54:40;;;;;;;5.53;4.00;;;;;;;1.49;100.00;98931.81;1770128;81;21350;-84
2022/01/03 09:57:46;;;;;;;4.60;3.98;;;;;;;1.51;100.00;98924.44;1768850;81;21636;-84
2022/01/03 10:00:53;;;;;;;4.70;3.42;;;;;;;1.51;100.00;98929.83;1771342;81;21385;-85
2022/01/03 10:03:59;;;;;;;5.42;3.47;;;;;;;1.48;100.00;98932.32;1753804;81;21326;-85
2022/01/03 10:07:03;;;;;;;4.28;3.60;;;;;;;1.46;100.00;98918.16;1769808;81;21355;-84
2022/01/03 10:10:09;;;;;;;4.85;3.50;;;;;;;1.47;100.00;98900.14;1770302;81;21244;-84
2022/01/03 10:13:15;;;;;;;6.78;4.78;;;;;;;1.51;100.00;98892.10;1770861;81;21826;-84
2022/01/03 10:16:20;;;;;;;5.03;3.75;;;;;;;1.61;100.00;98872.66;1771261;81;21716;-85
2022/01/03 10:19:28;;;;;;;4.95;3.80;;;;;;;1.68;100.00;98877.77;1769785;81;21177;-82
2022/01/03 10:22:38;;;;;;;5.45;3.40;;;;;;;1.73;100.00;98879.48;1771245;81;21830;-84
2022/01/03 10:25:45;;;;;;;5.15;3.50;;;;;;;1.77;100.00;98862.52;1771405;81;21877;-84
2022/01/03 10:28:51;;;;;;;3.80;3.05;;;;;;;1.81;100.00;98855.81;1771313;81;21731;-84
2022/01/03 10:32:02;;;;;;;4.10;2.60;;;;;;;1.87;100.00;98844.89;1771348;81;21291;-84
2022/01/03 10:35:23;;;;;;;3.22;2.92;;;;;;;1.86;100.00;98851.30;1771545;81;21791;-83
2022/01/03 10:38:45;;;;;;;;;;;;;;;1.85;100.00;98841.52;1773999;81;21232;-83
2022/01/03 10:41:53;;;;;;;3.42;2.90;;;;;;;1.86;100.00;98835.96;1769913;81;20706;-83
2022/01/03 10:44:58;;;;;;;3.08;2.70;;;;;;;1.86;100.00;98818.94;1770208;81;22549;-84
2022/01/03 10:48:04;;;;;;;3.47;2.50;;;;;;;1.88;100.00;98816.92;1771268;81;21296;-83
2022/01/03 10:51:10;;;;;;;4.00;2.77;;;;;;;1.91;100.00;98807.18;1771294;81;21300;-83
2022/01/03 10:54:17;;;;;;;3.10;2.62;;;;;;;1.94;100.00;98809.57;1771339;81;21307;-83
2022/01/03 10:57:22;;;;;;;3.52;2.70;;;;;;;1.87;100.00;98807.98;1770339;81;21743;-83
2022/01/03 11:00:31;;;;;;;6.08;3.22;;;;;;;1.82;100.00;98801.38;1771294;81;21402;-84
2022/01/03 11:03:38;;;;;;;9.78;3.50;;;;;;;1.77;100.00;98800.50;1770902;81;21323;-84
2022/01/03 11:13:29;;;;;;;4.55;2.98;;;;;;;1.74;100.00;98792.72;1771257;81;21351;-84
2022/01/03 11:16:40;;;;;;;3.62;3.17;;;;;;;1.73;100.00;98785.14;1769828;81;21898;-84
2022/01/03 11:19:48;;;;;;;3.72;2.92;;;;;;;1.75;100.00;98776.41;1770206;81;21196;-84
2022/01/03 11:22:56;;;;;;;4.47;3.52;;;;;;;1.76;100.00;98774.05;1771299;81;21248;-85
2022/01/03 11:26:01;;;;;;;3.80;3.00;;;;;;;1.75;100.00;98769.67;1771503;81;21322;-84
2022/01/03 11:29:06;;;;;;;3.80;3.33;;;;;;;1.77;100.00;98757.37;1771271;81;21181;-84
2022/01/03 11:32:13;;;;;;;4.30;3.20;;;;;;;1.77;100.00;98750.13;1769824;81;21255;-84
2022/01/03 11:35:18;;;;;;;4.08;3.50;;;;;;;1.76;100.00;98748.95;1753476;81;21307;-84
2022/01/03 11:38:28;;;;;;;5.55;4.00;;;;;;;1.73;100.00;98754.64;1771261;81;21295;-84
2022/01/03 11:41:33;;;;;;;4.83;3.80;;;;;;;1.72;100.00;98752.95;1771449;81;21315;-83
2022/01/03 11:44:40;;;;;;;8.53;4.65;;;;;;;1.73;100.00;98753.30;1770736;81;21917;-83
2022/01/03 11:47:47;;;;;;;7.35;5.65;;;;;;;1.76;100.00;98737.66;1771152;81;21306;-83
2022/01/03 11:50:53;;;;;;;5.67;4.42;;;;;;;1.78;100.00;98735.63;1771311;81;21216;-83
2022/01/03 11:53:59;;;;;;;7.15;5.15;;;;;;;1.84;100.00;98729.30;1771290;81;21312;-83
2022/01/03 12:04:05;;;;;;;5.33;4.75;;;;;;;1.95;100.00;98728.50;1647234;86;21223;-83
2022/01/03 12:07:22;;;;;;;6.85;4.87;;;;;;;2.02;100.00;98706.64;1723842;82;21297;-83
2022/01/03 12:10:30;;;;;;;4.90;4.22;;;;;;;2.10;100.00;98714.41;1744689;81;21249;-83
2022/01/03 12:14:13;;;;;;;6.75;4.90;;;;;;;2.17;100.00;98693.90;1745896;82;21300;-82
2022/01/03 12:17:23;;;;;;;7.87;6.05;;;;;;;2.21;100.00;98701.98;1744707;82;21332;-83
2022/01/03 12:20:31;;;;;;;6.85;5.05;;;;;;;2.27;100.00;98702.70;1744606;82;21229;-83
2022/01/03 12:23:47;;;;;;;10.32;7.53;;;;;;;2.35;100.00;98687.02;1726593;82;21320;-83
2022/01/03 12:27:14;;;;;;;8.68;6.83;;;;;;;2.35;100.00;98684.33;1746169;82;21313;-83
2022/01/03 12:30:25;;;;;;;8.23;5.95;;;;;;;2.40;100.00;98683.33;1745976;82;21301;-83
2022/01/03 12:33:31;;;;;;;9.95;7.65;;;;;;;2.44;100.00;98683.34;1746278;82;21284;-83
2022/01/03 12:36:35;;;;;;;8.75;7.03;;;;;;;2.45;100.00;98684.55;1744561;82;21317;-83
2022/01/03 12:39:45;;;;;;;8.25;6.45;;;;;;;2.44;100.00;98675.25;1744582;81;21185;-84
2022/01/03 12:43:06;;;;;;;10.15;6.75;;;;;;;2.40;100.00;98676.11;1724653;82;21229;-83
2022/01/03 12:46:13;;;;;;;;;;;;;;;2.39;100.00;98672.20;1747483;82;21245;-83
2022/01/03 12:49:34;;;;;;;18.35;8.43;;;;;;;2.39;100.00;98665.45;1746369;82;20289;-83
2022/01/03 12:52:44;;;;;;;15.15;10.63;;;;;;;2.47;100.00;98654.69;1745871;82;21784;-83
2022/01/03 12:55:57;;;;;;;11.65;8.45;;;;;;;2.53;100.00;98647.27;1745534;82;21321;-83
2022/01/03 12:59:04;;;;;;;14.75;9.80;;;;;;;2.53;100.00;98640.52;1745993;81;21352;-83
2022/01/03 13:02:35;;;;;;;14.40;9.63;;;;;;;2.51;100.00;98646.61;1776306;81;21335;-84
2022/01/03 13:05:41;;;;;;;14.85;10.00;;;;;;;2.55;100.00;98653.37;1713332;83;21892;-83
2022/01/03 13:08:52;;;;;;;17.95;11.20;;;;;;;2.56;100.00;98642.91;1776649;81;21187;-83
2022/01/03 13:12:01;;;;;;;12.78;9.48;;;;;;;2.55;100.00;98639.88;1776617;81;21315;-83
2022/01/03 13:15:11;;;;;;;15.53;10.60;;;;;;;2.59;100.00;98630.91;1776758;81;21307;-82
2022/01/03 13:18:24;;;;;;;21.68;13.90;;;;;;;2.63;100.00;98628.22;1775307;81;21212;-81
2022/01/03 13:21:35;;;;;;;18.20;12.30;;;;;;;2.65;100.00;98633.81;1775266;81;21185;-82
2022/01/03 13:24:53;;;;;;;17.87;12.35;;;;;;;2.68;100.00;98638.02;1776460;81;21181;-82
2022/01/03 13:28:00;;;;;;;16.02;11.80;;;;;;;2.63;100.00;98626.88;1775161;81;21193;-82
2022/01/03 13:31:11;;;;;;;18.20;11.83;;;;;;;2.54;100.00;98630.06;1775421;81;21909;-82
2022/01/03 13:34:18;;;;;;;29.45;14.03;;;;;;;2.51;100.00;98629.06;1776717;81;21310;-83
2022/01/03 13:37:24;;;;;;;23.62;15.85;;;;;;;2.54;100.00;98632.76;1775475;81;21307;-82
2022/01/03 13:40:30;;;;;;;26.60;16.93;;;;;;;2.54;100.00;98621.96;1776992;81;21185;-82
2022/01/03 13:43:39;;;;;;;25.32;14.93;;;;;;;2.55;100.00;98625.87;1776740;81;21301;-82
2022/01/03 13:50:07;;;;;;;22.75;15.05;;;;;;;2.37;100.00;98617.06;1775167;81;21306;-82
2022/01/03 13:53:15;;;;;;;23.98;15.35;;;;;;;2.32;100.00;98613.17;1776736;81;21185;-82
2022/01/03 13:56:22;;;;;;;22.22;14.15;;;;;;;2.30;100.00;98620.91;1776402;81;21303;-82
2022/01/03 13:59:31;;;;;;;23.55;16.20;;;;;;;2.24;100.00;98625.62;1776795;81;21826;-82
2022/01/03 14:02:38;;;;;;;24.57;17.00;;;;;;;2.19;100.00;98626.62;1779654;80;22062;-82
2022/01/03 14:05:47;;;;;;;26.93;17.77;;;;;;;2.18;100.00;98619.54;1779709;80;21321;-82
2022/01/03 14:08:53;;;;;;;27.75;17.45;;;;;;;2.19;100.00;98610.44;1779475;80;21739;-82
2022/01/03 14:11:59;;;;;;;32.73;19.98;;;;;;;2.21;100.00;98615.17;1779810;80;21311;-82
2022/01/03 14:15:09;;;;;;;29.90;18.32;;;;;;;2.18;100.00;98620.89;1756401;80;21634;-82
2022/01/03 14:18:14;;;;;;;26.73;15.85;;;;;;;2.18;100.00;98616.00;1779146;80;21394;-83
2022/01/03 14:21:22;;;;;;;26.70;16.80;;;;;;;2.19;100.00;98622.57;1779348;80;22178;-82
2022/01/03 14:24:30;;;;;;;30.88;20.92;;;;;;;2.17;100.00;98617.86;1779545;80;21310;-83
2022/01/03 14:27:41;;;;;;;28.73;17.27;;;;;;;2.10;100.00;98615.97;1778460;80;21200;-84
2022/01/03 14:30:46;;;;;;;30.52;19.50;;;;;;;2.06;100.00;98619.48;1779608;80;21295;-84
2022/01/03 14:33:52;;;;;;;33.08;21.20;;;;;;;2.02;100.00;98625.73;1778535;80;21324;-84
2022/01/03 14:36:59;;;;;;;28.73;18.57;;;;;;;2.04;100.00;98617.47;1777880;80;21861;-84
2022/01/03 14:40:05;;;;;;;27.58;16.85;;;;;;;2.11;100.00;98620.34;1780561;80;21137;-83
2022/01/03 14:43:13;;;;;;;32.50;19.92;;;;;;;2.11;100.00;98619.84;1779443;80;21874;-84
2022/01/03 14:46:19;;;;;;;31.55;20.48;;;;;;;2.04;100.00;98611.57;1778946;80;21830;-83
2022/01/03 14:49:26;;;;;;;34.08;18.32;;;;;;;1.97;100.00;98619.12;1778610;80;21636;-84
2022/01/03 14:52:44;;;;;;;32.40;19.77;;;;;;;1.92;100.00;98616.06;1779488;80;21299;-83
2022/01/03 14:55:51;;;;;;;27.22;16.55;;;;;;;1.87;100.00;98625.98;1779509;80;21299;-83
2022/01/03 14:58:56;;;;;;;32.48;19.60;;;;;;;1.86;100.00;98625.66;1779523;80;21334;-83